createdAt,value
2023-05-07T00:00:40.217Z,11.69
2023-05-07T00:01:40.203Z,11.71
2023-05-07T00:02:40.271Z,11.69
2023-05-07T00:03:40.362Z,11.71
2023-05-07T00:04:40.318Z,11.82
2023-05-07T00:05:40.177Z,11.80
2023-05-07T00:06:40.144Z,11.70
2023-05-07T00:07:40.140Z,11.74
2023-05-07T00:08:40.128Z,11.79
2023-05-07T00:09:40.130Z,11.76
2023-05-07T00:10:40.227Z,11.70
2023-05-07T00:11:40.097Z,11.73
2023-05-07T00:12:40.110Z,11.69
2023-05-07T00:13:40.067Z,11.79
2023-05-07T00:14:40.087Z,11.69
2023-05-07T00:15:40.078Z,11.79
2023-05-07T00:16:40.088Z,11.79
2023-05-07T00:17:40.040Z,11.79
2023-05-07T00:18:40.021Z,11.73
2023-05-07T00:19:40.016Z,11.71
2023-05-07T00:20:40.014Z,11.76
2023-05-07T00:21:39.989Z,11.71
2023-05-07T00:22:39.993Z,11.74
2023-05-07T00:23:39.963Z,11.77
2023-05-07T00:24:39.954Z,11.67
2023-05-07T00:25:39.957Z,11.82
2023-05-07T00:26:40.078Z,11.73
2023-05-07T00:27:39.912Z,11.71
2023-05-07T00:28:39.905Z,11.69
2023-05-07T00:29:39.899Z,11.77
2023-05-07T00:30:39.907Z,11.71
2023-05-07T00:31:39.945Z,11.79
2023-05-07T00:32:39.898Z,11.74
2023-05-07T00:33:39.880Z,11.73
2023-05-07T00:34:39.857Z,11.73
2023-05-07T00:35:39.862Z,11.79
2023-05-07T00:36:39.829Z,11.82
2023-05-07T00:37:39.810Z,11.77
2023-05-07T00:38:39.810Z,11.77
2023-05-07T00:39:39.798Z,11.79
2023-05-07T00:40:39.785Z,11.77
2023-05-07T00:41:39.786Z,11.80
2023-05-07T00:42:39.778Z,11.74
2023-05-07T00:43:39.742Z,11.73
2023-05-07T00:44:39.735Z,11.62
2023-05-07T00:45:39.813Z,11.69
2023-05-07T00:46:39.731Z,11.71
2023-05-07T00:47:39.762Z,11.64
2023-05-07T00:48:39.707Z,11.73
2023-05-07T00:49:39.682Z,11.66
2023-05-07T00:50:39.675Z,11.67
2023-05-07T00:51:39.658Z,11.61
2023-05-07T00:52:39.671Z,11.66
2023-05-07T00:53:39.644Z,11.64
2023-05-07T00:54:39.629Z,11.74
2023-05-07T00:55:39.636Z,11.64
2023-05-07T00:56:39.611Z,11.66
2023-05-07T00:57:39.622Z,11.66
2023-05-07T00:58:39.717Z,11.66
2023-05-07T00:59:39.582Z,11.62
2023-05-07T01:00:39.559Z,11.62
2023-05-07T01:01:39.611Z,11.62
2023-05-07T01:02:39.582Z,11.62
2023-05-07T01:03:39.552Z,11.59
2023-05-07T01:04:39.565Z,11.62
2023-05-07T01:05:39.509Z,11.64
2023-05-07T01:06:39.501Z,11.61
2023-05-07T01:07:39.504Z,11.67
2023-05-07T01:08:39.502Z,11.62
2023-05-07T01:09:39.500Z,11.62
2023-05-07T01:10:39.461Z,11.64
2023-05-07T01:11:39.438Z,11.64
2023-05-07T01:12:39.478Z,11.59
2023-05-07T01:13:39.420Z,11.62
2023-05-07T01:14:39.460Z,11.64
2023-05-07T01:15:39.406Z,11.64
2023-05-07T01:16:39.440Z,11.61
2023-05-07T01:17:39.493Z,11.67
2023-05-07T01:18:39.376Z,11.61
2023-05-07T01:19:39.388Z,11.67
2023-05-07T01:20:39.350Z,11.64
2023-05-07T01:21:39.333Z,11.64
2023-05-07T01:22:39.332Z,11.55
2023-05-07T01:23:39.316Z,11.67
2023-05-07T01:24:39.339Z,11.67
2023-05-07T01:25:39.295Z,11.64
2023-05-07T01:26:39.296Z,11.61
2023-05-07T01:27:39.280Z,11.64
2023-05-07T01:28:39.274Z,11.56
2023-05-07T01:29:39.276Z,11.58
2023-05-07T01:30:39.338Z,11.59
2023-05-07T01:31:39.316Z,11.58
2023-05-07T01:32:39.264Z,11.56
2023-05-07T01:33:39.213Z,11.62
2023-05-07T01:34:39.233Z,11.59
2023-05-07T01:35:39.196Z,11.52
2023-05-07T01:36:39.242Z,11.54
2023-05-07T01:37:39.224Z,11.52
2023-05-07T01:38:39.164Z,11.61
2023-05-07T01:39:39.166Z,11.54
2023-05-07T01:40:39.136Z,11.56
2023-05-07T01:41:39.125Z,11.55
2023-05-07T01:42:39.130Z,11.56
2023-05-07T01:43:39.120Z,11.55
2023-05-07T01:44:39.146Z,11.61
2023-05-07T01:45:39.118Z,11.51
2023-05-07T01:46:39.241Z,11.54
2023-05-07T01:47:39.099Z,11.67
2023-05-07T01:48:39.051Z,11.59
2023-05-07T01:49:39.039Z,11.56
2023-05-07T01:50:39.051Z,11.59
2023-05-07T01:51:39.007Z,11.58
2023-05-07T01:52:39.001Z,11.64
2023-05-07T01:53:38.984Z,11.59
2023-05-07T01:54:38.980Z,11.64
2023-05-07T01:55:39.000Z,11.55
2023-05-07T01:56:38.961Z,11.55
2023-05-07T01:57:38.953Z,11.49
2023-05-07T01:58:38.947Z,11.56
2023-05-07T01:59:38.926Z,11.55
2023-05-07T02:00:38.936Z,11.62
2023-05-07T02:01:38.957Z,11.61
2023-05-07T02:02:39.167Z,11.58
2023-05-07T02:03:39.025Z,11.56
2023-05-07T02:04:38.892Z,11.56
2023-05-07T02:05:38.880Z,11.55
2023-05-07T02:06:38.849Z,11.52
2023-05-07T02:07:38.834Z,11.56
2023-05-07T02:08:38.831Z,11.62
2023-05-07T02:09:38.817Z,11.55
2023-05-07T02:10:38.830Z,11.55
2023-05-07T02:11:38.789Z,11.51
2023-05-07T02:12:38.827Z,11.52
2023-05-07T02:13:38.773Z,11.58
2023-05-07T02:14:38.774Z,11.55
2023-05-07T02:15:38.776Z,11.54
2023-05-07T02:16:38.808Z,11.55
2023-05-07T02:17:38.851Z,11.55
2023-05-07T02:18:38.813Z,11.59
2023-05-07T02:19:38.708Z,11.54
2023-05-07T02:20:38.734Z,11.58
2023-05-07T02:21:38.729Z,11.55
2023-05-07T02:22:38.683Z,11.49
2023-05-07T02:23:38.673Z,11.55
2023-05-07T02:24:38.663Z,11.52
2023-05-07T02:25:38.653Z,11.54
2023-05-07T02:26:38.676Z,11.52
2023-05-07T02:27:38.624Z,11.58
2023-05-07T02:28:38.625Z,11.55
2023-05-07T02:29:38.603Z,11.55
2023-05-07T02:30:38.627Z,11.48
2023-05-07T02:31:38.667Z,11.54
2023-05-07T02:32:38.616Z,11.52
2023-05-07T02:33:38.596Z,11.55
2023-05-07T02:34:38.645Z,11.51
2023-05-07T02:35:38.545Z,11.49
2023-05-07T02:36:38.562Z,11.49
2023-05-07T02:37:38.554Z,11.55
2023-05-07T02:38:38.513Z,11.54
2023-05-07T02:39:38.496Z,11.55
2023-05-07T02:40:38.495Z,11.56
2023-05-07T02:41:38.498Z,11.54
2023-05-07T02:42:38.468Z,11.56
2023-05-07T02:43:38.460Z,11.51
2023-05-07T02:44:38.447Z,11.51
2023-05-07T02:45:38.531Z,11.49
2023-05-07T02:46:38.449Z,11.45
2023-05-07T02:47:38.444Z,11.49
2023-05-07T02:48:38.401Z,11.54
2023-05-07T02:49:38.389Z,11.49
2023-05-07T02:50:38.404Z,11.49
2023-05-07T02:51:38.399Z,11.49
2023-05-07T02:52:38.358Z,11.55
2023-05-07T02:53:38.342Z,11.54
2023-05-07T02:54:38.337Z,11.51
2023-05-07T02:55:38.321Z,11.45
2023-05-07T02:56:38.331Z,11.43
2023-05-07T02:57:38.334Z,11.43
2023-05-07T02:58:38.296Z,11.52
2023-05-07T02:59:38.282Z,11.43
2023-05-07T03:00:38.269Z,11.49
2023-05-07T03:01:38.302Z,11.48
2023-05-07T03:02:38.314Z,11.41
2023-05-07T03:03:38.299Z,11.51
2023-05-07T03:04:38.283Z,11.54
2023-05-07T03:05:38.231Z,11.51
2023-05-07T03:06:38.302Z,11.41
2023-05-07T03:07:38.220Z,11.45
2023-05-07T03:08:38.186Z,11.49
2023-05-07T03:09:38.175Z,11.41
2023-05-07T03:10:38.167Z,11.51
2023-05-07T03:11:38.151Z,11.46
2023-05-07T03:12:38.173Z,11.43
2023-05-07T03:13:38.132Z,11.46
2023-05-07T03:14:38.142Z,11.45
2023-05-07T03:15:38.189Z,11.49
2023-05-07T03:16:38.099Z,11.46
2023-05-07T03:17:38.150Z,11.46
2023-05-07T03:18:38.127Z,11.49
2023-05-07T03:19:38.084Z,11.45
2023-05-07T03:20:38.199Z,11.46
2023-05-07T03:21:38.035Z,11.48
2023-05-07T03:22:38.130Z,11.45
2023-05-07T03:23:38.023Z,11.49
2023-05-07T03:24:38.034Z,11.51
2023-05-07T03:25:38.012Z,11.41
2023-05-07T03:26:37.980Z,11.51
2023-05-07T03:27:37.983Z,11.43
2023-05-07T03:28:37.964Z,11.48
2023-05-07T03:29:37.976Z,11.52
2023-05-07T03:30:37.968Z,11.45
2023-05-07T03:31:38.066Z,11.49
2023-05-07T03:32:37.994Z,11.51
2023-05-07T03:33:37.905Z,11.48
2023-05-07T03:34:37.907Z,11.46
2023-05-07T03:35:37.898Z,11.45
2023-05-07T03:36:37.877Z,11.45
2023-05-07T03:37:37.885Z,11.46
2023-05-07T03:38:38.061Z,11.45
2023-05-07T03:39:37.845Z,11.48
2023-05-07T03:40:37.831Z,11.45
2023-05-07T03:41:37.818Z,11.52
2023-05-07T03:42:37.846Z,11.45
2023-05-07T03:43:37.800Z,11.54
2023-05-07T03:44:37.786Z,11.46
2023-05-07T03:45:37.775Z,11.54
2023-05-07T03:46:37.795Z,11.46
2023-05-07T03:47:37.805Z,11.48
2023-05-07T03:48:37.785Z,11.46
2023-05-07T03:49:37.750Z,11.49
2023-05-07T03:50:39.022Z,11.48
2023-05-07T03:51:37.711Z,11.51
2023-05-07T03:52:37.706Z,11.45
2023-05-07T03:53:37.714Z,11.46
2023-05-07T03:54:37.777Z,11.49
2023-05-07T03:55:37.673Z,11.48
2023-05-07T03:56:37.659Z,11.48
2023-05-07T03:57:37.648Z,11.41
2023-05-07T03:58:37.660Z,11.45
2023-05-07T03:59:37.657Z,11.58
2023-05-07T04:00:37.618Z,11.49
2023-05-07T04:01:37.644Z,11.48
2023-05-07T04:02:37.864Z,11.45
2023-05-07T04:03:37.831Z,11.48
2023-05-07T04:04:37.604Z,11.52
2023-05-07T04:05:37.583Z,11.52
2023-05-07T04:06:37.554Z,11.49
2023-05-07T04:07:37.539Z,11.54
2023-05-07T04:08:37.553Z,11.48
2023-05-07T04:09:37.554Z,11.49
2023-05-07T04:10:37.552Z,11.54
2023-05-07T04:11:37.513Z,11.49
2023-05-07T04:12:37.506Z,11.43
2023-05-07T04:13:37.474Z,11.45
2023-05-07T04:14:37.475Z,11.46
2023-05-07T04:15:37.530Z,11.46
2023-05-07T04:16:37.480Z,11.45
2023-05-07T04:17:37.470Z,11.48
2023-05-07T04:18:37.449Z,11.49
2023-05-07T04:19:37.417Z,11.48
2023-05-07T04:20:37.416Z,11.45
2023-05-07T04:21:37.391Z,11.43
2023-05-07T04:22:37.374Z,11.54
2023-05-07T04:23:37.380Z,11.49
2023-05-07T04:24:37.358Z,11.48
2023-05-07T04:25:37.380Z,11.49
2023-05-07T04:26:37.476Z,11.45
2023-05-07T04:27:37.329Z,11.51
2023-05-07T04:28:37.315Z,11.40
2023-05-07T04:29:37.308Z,11.45
2023-05-07T04:30:37.288Z,11.45
2023-05-07T04:31:37.354Z,11.49
2023-05-07T04:32:37.301Z,11.43
2023-05-07T04:33:37.261Z,11.52
2023-05-07T04:34:37.249Z,11.48
2023-05-07T04:35:37.245Z,11.41
2023-05-07T04:36:37.234Z,11.48
2023-05-07T04:37:37.214Z,11.46
2023-05-07T04:38:37.217Z,11.51
2023-05-07T04:39:37.214Z,11.49
2023-05-07T04:40:37.178Z,11.46
2023-05-07T04:41:37.193Z,11.48
2023-05-07T04:42:37.248Z,11.41
2023-05-07T04:43:37.147Z,11.51
2023-05-07T04:44:37.154Z,11.45
2023-05-07T04:45:37.141Z,11.49
2023-05-07T04:46:37.198Z,11.48
2023-05-07T04:47:37.143Z,11.52
2023-05-07T04:48:37.088Z,11.45
2023-05-07T04:49:37.107Z,11.52
2023-05-07T04:50:37.066Z,11.43
2023-05-07T04:51:37.089Z,11.51
2023-05-07T04:52:37.047Z,11.45
2023-05-07T04:53:37.059Z,11.45
2023-05-07T04:54:37.021Z,11.51
2023-05-07T04:55:37.019Z,11.54
2023-05-07T04:56:37.018Z,11.55
2023-05-07T04:57:36.997Z,11.46
2023-05-07T04:58:37.027Z,11.51
2023-05-07T04:59:36.982Z,11.56
2023-05-07T05:00:36.962Z,11.51
2023-05-07T05:01:37.019Z,11.49
2023-05-07T05:02:36.943Z,11.54
2023-05-07T05:03:37.182Z,11.51
2023-05-07T05:04:36.915Z,11.58
2023-05-07T05:05:36.910Z,11.52
2023-05-07T05:06:36.916Z,11.54
2023-05-07T05:07:36.902Z,11.52
2023-05-07T05:08:36.877Z,11.56
2023-05-07T05:09:36.876Z,11.55
2023-05-07T05:10:36.856Z,11.54
2023-05-07T05:11:36.866Z,11.59
2023-05-07T05:12:36.852Z,11.58
2023-05-07T05:13:36.823Z,11.54
2023-05-07T05:14:36.838Z,11.56
2023-05-07T05:15:36.807Z,11.55
2023-05-07T05:16:36.938Z,11.52
2023-05-07T05:17:36.820Z,11.54
2023-05-07T05:18:36.785Z,11.58
2023-05-07T05:19:36.758Z,11.49
2023-05-07T05:20:36.750Z,11.54
2023-05-07T05:21:36.757Z,11.67
2023-05-07T05:22:36.718Z,11.66
2023-05-07T05:23:36.711Z,11.64
2023-05-07T05:24:36.695Z,11.52
2023-05-07T05:25:36.694Z,11.56
2023-05-07T05:26:36.703Z,11.58
2023-05-07T05:27:36.687Z,11.66
2023-05-07T05:28:36.660Z,11.67
2023-05-07T05:29:36.649Z,11.61
2023-05-07T05:30:36.764Z,11.62
2023-05-07T05:31:36.688Z,11.67
2023-05-07T05:32:36.651Z,11.70
2023-05-07T05:33:36.601Z,11.66
2023-05-07T05:34:36.619Z,11.76
2023-05-07T05:35:36.603Z,11.79
2023-05-07T05:36:36.570Z,11.77
2023-05-07T05:37:36.558Z,11.73
2023-05-07T05:38:36.575Z,11.67
2023-05-07T05:39:36.544Z,11.71
2023-05-07T05:40:36.561Z,11.82
2023-05-07T05:41:36.550Z,11.84
2023-05-07T05:42:36.535Z,11.79
2023-05-07T05:43:36.521Z,11.85
2023-05-07T05:44:36.487Z,11.76
2023-05-07T05:45:36.521Z,11.82
2023-05-07T05:46:37.300Z,11.84
2023-05-07T05:47:36.542Z,11.91
2023-05-07T05:48:36.453Z,11.85
2023-05-07T05:49:36.443Z,11.84
2023-05-07T05:50:36.468Z,11.85
2023-05-07T05:51:36.413Z,11.91
2023-05-07T05:52:36.404Z,11.93
2023-05-07T05:53:36.395Z,11.95
2023-05-07T05:54:36.369Z,11.93
2023-05-07T05:55:36.408Z,11.91
2023-05-07T05:56:36.374Z,11.96
2023-05-07T05:57:36.350Z,12.00
2023-05-07T05:58:36.357Z,11.96
2023-05-07T05:59:36.319Z,11.91
2023-05-07T06:00:36.308Z,12.05
2023-05-07T06:01:36.417Z,12.07
2023-05-07T06:02:36.488Z,12.05
2023-05-07T06:03:36.282Z,12.04
2023-05-07T06:04:36.301Z,12.13
2023-05-07T06:05:36.258Z,12.10
2023-05-07T06:06:36.269Z,12.15
2023-05-07T06:07:36.232Z,12.14
2023-05-07T06:08:36.226Z,12.11
2023-05-07T06:09:36.209Z,12.18
2023-05-07T06:10:36.201Z,12.32
2023-05-07T06:11:36.224Z,12.25
2023-05-07T06:12:36.218Z,12.17
2023-05-07T06:13:36.180Z,12.28
2023-05-07T06:14:36.155Z,12.21
2023-05-07T06:15:36.146Z,12.23
2023-05-07T06:16:36.178Z,12.29
2023-05-07T06:17:36.198Z,12.29
2023-05-07T06:18:36.213Z,12.30
2023-05-07T06:19:36.108Z,12.38
2023-05-07T06:20:36.117Z,12.36
2023-05-07T06:21:36.081Z,12.33
2023-05-07T06:22:36.098Z,12.36
2023-05-07T06:23:36.079Z,12.40
2023-05-07T06:24:36.051Z,12.47
2023-05-07T06:25:36.070Z,12.44
2023-05-07T06:26:36.025Z,12.41
2023-05-07T06:27:36.019Z,12.44
2023-05-07T06:28:36.011Z,12.41
2023-05-07T06:29:36.023Z,12.50
2023-05-07T06:30:36.008Z,12.51
2023-05-07T06:31:35.984Z,12.51
2023-05-07T06:32:35.984Z,12.54
2023-05-07T06:33:36.409Z,12.55
2023-05-07T06:34:36.066Z,12.55
2023-05-07T06:35:35.938Z,12.66
2023-05-07T06:36:35.920Z,12.61
2023-05-07T06:37:35.925Z,12.63
2023-05-07T06:38:35.909Z,12.72
2023-05-07T06:39:35.917Z,12.68
2023-05-07T06:40:35.877Z,12.72
2023-05-07T06:41:35.894Z,12.66
2023-05-07T06:42:35.850Z,12.72
2023-05-07T06:43:35.856Z,12.73
2023-05-07T06:44:35.836Z,12.73
2023-05-07T06:45:35.825Z,12.80
2023-05-07T06:46:35.863Z,12.77
2023-05-07T06:47:35.849Z,12.80
2023-05-07T06:48:35.788Z,12.83
2023-05-07T06:49:35.785Z,12.86
2023-05-07T06:50:35.892Z,12.90
2023-05-07T06:51:35.757Z,12.87
2023-05-07T06:52:35.761Z,12.93
2023-05-07T06:53:35.737Z,12.90
2023-05-07T06:54:35.760Z,12.95
2023-05-07T06:55:35.717Z,12.93
2023-05-07T06:56:35.721Z,13.05
2023-05-07T06:57:35.698Z,13.04
2023-05-07T06:58:35.697Z,12.98
2023-05-07T06:59:35.684Z,13.09
2023-05-07T07:00:35.655Z,13.05
2023-05-07T07:01:35.696Z,13.14
2023-05-07T07:02:35.647Z,13.24
2023-05-07T07:03:35.628Z,13.29
2023-05-07T07:04:35.644Z,13.16
2023-05-07T07:05:35.607Z,13.16
2023-05-07T07:06:35.642Z,13.39
2023-05-07T07:07:35.589Z,13.38
2023-05-07T07:08:35.576Z,13.27
2023-05-07T07:09:35.588Z,13.32
2023-05-07T07:10:35.543Z,13.36
2023-05-07T07:11:35.555Z,13.35
2023-05-07T07:12:35.560Z,13.46
2023-05-07T07:13:35.521Z,13.40
2023-05-07T07:14:35.505Z,13.46
2023-05-07T07:15:35.496Z,13.47
2023-05-07T07:16:35.622Z,13.55
2023-05-07T07:17:35.545Z,13.57
2023-05-07T07:18:35.462Z,13.60
2023-05-07T07:19:35.472Z,13.61
2023-05-07T07:20:35.441Z,13.63
2023-05-07T07:21:35.451Z,13.71
2023-05-07T07:22:35.516Z,13.71
2023-05-07T07:23:35.410Z,13.71
2023-05-07T07:24:35.392Z,13.76
2023-05-07T07:25:35.396Z,13.85
2023-05-07T07:26:35.404Z,13.79
2023-05-07T07:27:35.386Z,13.85
2023-05-07T07:28:35.352Z,13.93
2023-05-07T07:29:35.344Z,13.90
2023-05-07T07:30:35.341Z,13.90
2023-05-07T07:31:35.397Z,13.90
2023-05-07T07:32:35.383Z,13.98
2023-05-07T07:33:35.328Z,14.05
2023-05-07T07:34:35.288Z,14.08
2023-05-07T07:35:35.275Z,14.05
2023-05-07T07:36:45.582Z,14.16
2023-05-07T07:37:36.262Z,14.23
2023-05-07T07:38:35.448Z,14.22
2023-05-07T07:39:35.237Z,14.22
2023-05-07T07:40:35.331Z,14.31
2023-05-07T07:41:35.213Z,14.33
2023-05-07T07:42:35.220Z,14.34
2023-05-07T07:43:35.214Z,14.45
2023-05-07T07:44:35.177Z,14.38
2023-05-07T07:45:35.173Z,14.52
2023-05-07T07:46:35.208Z,14.41
2023-05-07T07:47:35.155Z,14.58
2023-05-07T07:48:35.159Z,14.56
2023-05-07T07:49:35.128Z,14.53
2023-05-07T07:50:44.426Z,14.58
2023-05-07T07:51:35.124Z,14.59
2023-05-07T07:52:35.085Z,14.69
2023-05-07T07:53:35.088Z,14.70
2023-05-07T07:54:35.093Z,14.74
2023-05-07T07:55:35.088Z,14.77
2023-05-07T07:56:35.052Z,14.92
2023-05-07T07:57:35.059Z,15.03
2023-05-07T07:58:35.029Z,14.93
2023-05-07T07:59:35.023Z,15.04
2023-05-07T08:00:35.005Z,15.11
2023-05-07T08:01:34.990Z,15.11
2023-05-07T08:02:35.098Z,15.07
2023-05-07T08:03:35.029Z,15.14
2023-05-07T08:04:35.014Z,15.26
2023-05-07T08:05:34.972Z,15.26
2023-05-07T08:06:34.960Z,15.23
2023-05-07T08:07:34.931Z,15.32
2023-05-07T08:08:34.932Z,15.30
2023-05-07T08:09:34.914Z,15.45
2023-05-07T08:10:35.344Z,15.41
2023-05-07T08:11:34.888Z,15.50
2023-05-07T08:12:35.015Z,15.48
2023-05-07T08:13:34.906Z,15.54
2023-05-07T08:14:34.869Z,15.70
2023-05-07T08:15:34.849Z,15.65
2023-05-07T08:16:34.858Z,15.81
2023-05-07T08:17:34.850Z,15.81
2023-05-07T08:18:34.801Z,15.81
2023-05-07T08:19:34.835Z,15.87
2023-05-07T08:20:34.797Z,15.98
2023-05-07T08:21:34.934Z,16.05
2023-05-07T08:22:34.833Z,15.99
2023-05-07T08:23:34.764Z,16.00
2023-05-07T08:24:34.753Z,16.14
2023-05-07T08:25:34.744Z,16.17
2023-05-07T08:26:34.831Z,16.24
2023-05-07T08:27:34.743Z,16.25
2023-05-07T08:28:34.713Z,16.36
2023-05-07T08:29:34.699Z,16.42
2023-05-07T08:30:34.727Z,16.46
2023-05-07T08:31:34.668Z,16.47
2023-05-07T08:32:34.801Z,16.62
2023-05-07T08:33:34.649Z,16.54
2023-05-07T08:34:34.648Z,16.69
2023-05-07T08:35:34.638Z,16.61
2023-05-07T08:36:34.619Z,16.72
2023-05-07T08:37:34.633Z,16.74
2023-05-07T08:38:34.623Z,16.74
2023-05-07T08:39:34.601Z,16.87
2023-05-07T08:40:34.580Z,16.84
2023-05-07T08:41:34.566Z,16.95
2023-05-07T08:42:34.716Z,17.09
2023-05-07T08:43:34.546Z,17.14
2023-05-07T08:44:34.536Z,17.06
2023-05-07T08:45:34.520Z,17.10
2023-05-07T08:46:34.541Z,17.17
2023-05-07T08:47:34.565Z,17.31
2023-05-07T08:48:34.484Z,17.39
2023-05-07T08:49:34.478Z,17.39
2023-05-07T08:50:34.470Z,17.45
2023-05-07T08:51:34.451Z,17.45
2023-05-07T08:52:34.470Z,17.52
2023-05-07T08:53:34.453Z,17.54
2023-05-07T08:54:34.432Z,17.53
2023-05-07T08:55:34.414Z,17.59
2023-05-07T08:56:34.422Z,17.75
2023-05-07T08:57:34.387Z,17.75
2023-05-07T08:58:34.473Z,17.76
2023-05-07T08:59:34.367Z,17.88
2023-05-07T09:00:34.363Z,17.88
2023-05-07T09:01:34.441Z,17.99
2023-05-07T09:02:34.376Z,18.08
2023-05-07T09:03:34.343Z,18.06
2023-05-07T09:04:34.316Z,18.15
2023-05-07T09:05:34.318Z,18.08
2023-05-07T09:06:34.313Z,18.24
2023-05-07T09:07:34.277Z,18.20
2023-05-07T09:08:34.280Z,18.24
2023-05-07T09:09:34.264Z,18.24
2023-05-07T09:10:34.249Z,18.38
2023-05-07T09:11:34.263Z,18.36
2023-05-07T09:12:34.228Z,18.33
2023-05-07T09:13:34.217Z,18.39
2023-05-07T09:14:34.338Z,18.41
2023-05-07T09:15:34.191Z,18.45
2023-05-07T09:16:34.224Z,18.45
2023-05-07T09:17:34.222Z,18.54
2023-05-07T09:18:34.185Z,18.57
2023-05-07T09:19:34.164Z,18.52
2023-05-07T09:20:34.152Z,18.67
2023-05-07T09:21:34.137Z,18.60
2023-05-07T09:22:34.130Z,18.67
2023-05-07T09:23:34.127Z,18.76
2023-05-07T09:24:34.128Z,18.78
2023-05-07T09:25:34.086Z,18.81
2023-05-07T09:26:34.075Z,18.81
2023-05-07T09:27:34.068Z,18.88
2023-05-07T09:28:34.378Z,18.85
2023-05-07T09:29:34.046Z,18.83
2023-05-07T09:30:34.055Z,18.88
2023-05-07T09:31:34.092Z,18.89
2023-05-07T09:32:34.053Z,18.91
2023-05-07T09:33:34.003Z,19.05
2023-05-07T09:34:34.009Z,19.05
2023-05-07T09:35:33.980Z,19.04
2023-05-07T09:36:34.008Z,19.09
2023-05-07T09:37:33.958Z,19.30
2023-05-07T09:38:33.955Z,19.32
2023-05-07T09:39:33.939Z,19.32
2023-05-07T09:40:33.937Z,19.44
2023-05-07T09:41:33.945Z,19.49
2023-05-07T09:42:33.908Z,19.50
2023-05-07T09:43:33.896Z,19.63
2023-05-07T09:44:33.889Z,19.62
2023-05-07T09:45:33.960Z,19.75
2023-05-07T09:46:34.009Z,19.75
2023-05-07T09:47:33.880Z,19.90
2023-05-07T09:48:33.839Z,19.99
2023-05-07T09:49:33.823Z,20.09
2023-05-07T09:50:33.825Z,20.07
2023-05-07T09:51:33.805Z,20.07
2023-05-07T09:52:33.824Z,20.11
2023-05-07T09:53:33.784Z,20.18
2023-05-07T09:54:33.800Z,20.23
2023-05-07T09:55:33.771Z,20.26
2023-05-07T09:56:33.787Z,20.30
2023-05-07T09:57:33.746Z,20.27
2023-05-07T09:58:33.727Z,20.32
2023-05-07T09:59:33.743Z,20.34
2023-05-07T10:00:33.715Z,20.36
2023-05-07T10:01:33.785Z,20.26
2023-05-07T10:02:33.967Z,20.39
2023-05-07T10:03:33.758Z,20.39
2023-05-07T10:04:33.689Z,20.37
2023-05-07T10:05:33.654Z,20.34
2023-05-07T10:06:33.649Z,20.36
2023-05-07T10:07:33.625Z,20.33
2023-05-07T10:08:33.652Z,20.41
2023-05-07T10:09:33.624Z,20.36
2023-05-07T10:10:33.602Z,20.42
2023-05-07T10:11:33.584Z,20.39
2023-05-07T10:12:33.581Z,20.41
2023-05-07T10:13:33.602Z,20.48
2023-05-07T10:14:33.577Z,20.46
2023-05-07T10:15:33.554Z,20.52
2023-05-07T10:16:33.547Z,20.36
2023-05-07T10:17:33.656Z,20.46
2023-05-07T10:18:33.766Z,20.52
2023-05-07T10:19:33.523Z,20.48
2023-05-07T10:20:33.497Z,20.52
2023-05-07T10:21:33.484Z,20.60
2023-05-07T10:22:33.470Z,20.53
2023-05-07T10:23:33.478Z,20.60
2023-05-07T10:24:33.449Z,20.56
2023-05-07T10:25:33.463Z,20.61
2023-05-07T10:26:33.428Z,20.55
2023-05-07T10:27:33.413Z,20.56
2023-05-07T10:28:33.422Z,20.61
2023-05-07T10:29:33.398Z,20.58
2023-05-07T10:30:34.112Z,20.61
2023-05-07T10:31:33.543Z,20.58
2023-05-07T10:32:33.377Z,20.58
2023-05-07T10:33:33.376Z,20.56
2023-05-07T10:34:33.437Z,20.61
2023-05-07T10:35:33.329Z,20.67
2023-05-07T10:36:33.324Z,20.70
2023-05-07T10:37:33.308Z,20.64
2023-05-07T10:38:33.366Z,20.63
2023-05-07T10:39:33.308Z,20.73
2023-05-07T10:40:33.282Z,20.74
2023-05-07T10:41:33.271Z,20.79
2023-05-07T10:42:33.259Z,20.86
2023-05-07T10:43:33.265Z,20.80
2023-05-07T10:44:33.239Z,20.82
2023-05-07T10:45:33.230Z,20.85
2023-05-07T10:46:33.387Z,20.97
2023-05-07T10:47:33.299Z,20.97
2023-05-07T10:48:33.335Z,21.01
2023-05-07T10:49:33.178Z,21.05
2023-05-07T10:50:33.419Z,21.07
2023-05-07T10:51:33.161Z,21.10
2023-05-07T10:52:33.151Z,21.03
2023-05-07T10:53:33.138Z,21.14
2023-05-07T10:54:33.133Z,21.07
2023-05-07T10:55:33.151Z,21.10
2023-05-07T10:56:33.119Z,21.20
2023-05-07T10:57:33.105Z,21.19
2023-05-07T10:58:33.229Z,21.25
2023-05-07T10:59:33.101Z,21.28
2023-05-07T11:01:33.125Z,21.30
2023-05-07T11:02:33.123Z,21.32
2023-05-07T11:03:33.061Z,21.29
2023-05-07T11:04:33.076Z,21.26
2023-05-07T11:05:36.641Z,21.37
2023-05-07T11:06:33.105Z,21.38
2023-05-07T11:07:33.046Z,21.37
2023-05-07T11:08:33.002Z,21.47
2023-05-07T11:09:32.965Z,21.43
2023-05-07T11:10:32.977Z,21.40
2023-05-07T11:11:35.112Z,21.41
2023-05-07T11:12:32.954Z,21.44
2023-05-07T11:13:32.924Z,21.44
2023-05-07T11:14:32.943Z,21.53
2023-05-07T11:15:32.929Z,21.56
2023-05-07T11:16:32.972Z,21.59
2023-05-07T11:17:35.727Z,21.60
2023-05-07T11:18:32.867Z,21.63
2023-05-07T11:19:32.871Z,21.60
2023-05-07T11:20:32.879Z,21.63
2023-05-07T11:21:32.845Z,21.65
2023-05-07T11:22:32.962Z,21.66
2023-05-07T11:23:32.813Z,21.59
2023-05-07T11:24:32.809Z,21.65
2023-05-07T11:25:32.821Z,21.58
2023-05-07T11:26:32.791Z,21.74
2023-05-07T11:27:32.769Z,21.66
2023-05-07T11:28:32.763Z,21.71
2023-05-07T11:29:32.751Z,21.73
2023-05-07T11:30:32.768Z,21.85
2023-05-07T11:31:32.775Z,21.82
2023-05-07T11:32:32.751Z,21.88
2023-05-07T11:33:32.714Z,21.97
2023-05-07T11:34:32.701Z,22.03
2023-05-07T11:35:34.970Z,21.97
2023-05-07T11:36:32.675Z,22.06
2023-05-07T11:37:32.697Z,22.07
2023-05-07T11:38:32.746Z,22.04
2023-05-07T11:39:32.640Z,22.03
2023-05-07T11:40:32.666Z,22.12
2023-05-07T11:41:32.625Z,22.28
2023-05-07T11:42:32.639Z,22.23
2023-05-07T11:43:32.605Z,22.28
2023-05-07T11:44:32.594Z,22.37
2023-05-07T11:45:32.649Z,22.37
2023-05-07T11:46:32.609Z,22.48
2023-05-07T11:47:32.581Z,22.49
2023-05-07T11:48:32.576Z,22.59
2023-05-07T11:49:32.549Z,22.59
2023-05-07T11:50:32.585Z,22.76
2023-05-07T11:51:32.509Z,22.70
2023-05-07T11:52:32.528Z,22.81
2023-05-07T11:53:32.487Z,22.83
2023-05-07T11:54:32.511Z,22.93
2023-05-07T11:55:32.476Z,22.89
2023-05-07T11:56:32.480Z,22.93
2023-05-07T11:57:32.473Z,22.88
2023-05-07T11:58:32.460Z,22.96
2023-05-07T11:59:32.430Z,23.08
2023-05-07T12:00:32.428Z,23.15
2023-05-07T12:01:32.413Z,23.14
2023-05-07T12:02:32.570Z,23.17
2023-05-07T12:03:36.160Z,23.18
2023-05-07T12:04:32.469Z,23.25
2023-05-07T12:05:32.370Z,23.26
2023-05-07T12:06:32.364Z,23.33
2023-05-07T12:07:32.365Z,23.33
2023-05-07T12:08:32.344Z,23.29
2023-05-07T12:09:32.350Z,23.41
2023-05-07T12:10:32.333Z,23.39
2023-05-07T12:11:32.300Z,23.51
2023-05-07T12:12:32.326Z,23.56
2023-05-07T12:13:32.292Z,23.56
2023-05-07T12:14:32.270Z,23.60
2023-05-07T12:15:32.260Z,23.70
2023-05-07T12:16:32.274Z,23.64
2023-05-07T12:17:32.301Z,23.73
2023-05-07T12:18:32.256Z,23.69
2023-05-07T12:19:32.215Z,23.71
2023-05-07T12:20:32.204Z,23.74
2023-05-07T12:21:32.224Z,23.82
2023-05-07T12:22:32.187Z,23.86
2023-05-07T12:23:32.170Z,23.91
2023-05-07T12:24:32.173Z,23.89
2023-05-07T12:25:32.150Z,23.91
2023-05-07T12:26:32.196Z,23.91
2023-05-07T12:27:32.126Z,24.03
2023-05-07T12:28:32.150Z,24.01
2023-05-07T12:29:32.113Z,24.03
2023-05-07T12:30:32.103Z,24.11
2023-05-07T12:31:32.143Z,24.07
2023-05-07T12:32:32.125Z,24.16
2023-05-07T12:33:32.102Z,24.18
2023-05-07T12:34:32.070Z,24.22
2023-05-07T12:35:32.046Z,24.29
2023-05-07T12:36:32.036Z,24.31
2023-05-07T12:37:32.683Z,24.36
2023-05-07T12:38:32.041Z,24.33
2023-05-07T12:39:32.004Z,24.41
2023-05-07T12:40:32.000Z,24.33
2023-05-07T12:41:31.986Z,24.47
2023-05-07T12:42:32.006Z,24.55
2023-05-07T12:43:31.982Z,24.51
2023-05-07T12:44:31.957Z,24.55
2023-05-07T12:45:31.939Z,24.51
2023-05-07T12:46:31.951Z,24.62
2023-05-07T12:47:31.960Z,24.62
2023-05-07T12:48:31.927Z,24.56
2023-05-07T12:49:31.934Z,24.71
2023-05-07T12:50:31.891Z,24.68
2023-05-07T12:51:31.909Z,24.81
2023-05-07T12:52:31.865Z,24.75
2023-05-07T12:53:31.856Z,24.74